createdAt,value
2018-10-09T00:00:48.736Z,19.56
2018-10-09T00:01:48.163Z,19.56
2018-10-09T00:02:47.918Z,19.55
2018-10-09T00:03:48.219Z,19.55
2018-10-09T00:04:48.213Z,19.54
2018-10-09T00:05:47.984Z,19.53
2018-10-09T00:06:48.180Z,19.55
2018-10-09T00:07:48.477Z,19.56
2018-10-09T00:08:48.031Z,19.54
2018-10-09T00:09:48.114Z,19.53
2018-10-09T00:10:48.036Z,19.54
2018-10-09T00:11:48.034Z,19.53
2018-10-09T00:12:48.230Z,19.53
2018-10-09T00:13:48.180Z,19.51
2018-10-09T00:14:48.222Z,19.52
2018-10-09T00:15:48.417Z,19.51
2018-10-09T00:16:48.100Z,19.54
2018-10-09T00:17:48.110Z,19.54
2018-10-09T00:18:47.983Z,19.54
2018-10-09T00:19:48.020Z,19.54
2018-10-09T00:20:47.946Z,19.54
2018-10-09T00:21:48.283Z,19.52
2018-10-09T00:22:47.880Z,19.51
2018-10-09T00:23:48.136Z,19.52
2018-10-09T00:24:48.100Z,19.52
2018-10-09T00:25:48.272Z,19.52
2018-10-09T00:26:48.377Z,19.51
2018-10-09T00:27:48.142Z,19.52
2018-10-09T00:28:48.128Z,19.51
2018-10-09T00:29:48.644Z,19.51
2018-10-09T00:30:47.953Z,19.53
2018-10-09T00:31:48.408Z,19.5
2018-10-09T00:32:48.054Z,19.52
2018-10-09T00:33:48.159Z,19.51
2018-10-09T00:34:47.964Z,19.51
2018-10-09T00:35:48.030Z,19.48
2018-10-09T00:36:48.282Z,19.51
2018-10-09T00:37:47.893Z,19.5
2018-10-09T00:38:48.298Z,19.52
2018-10-09T00:39:48.031Z,19.5
2018-10-09T00:40:48.200Z,19.5
2018-10-09T00:41:47.954Z,19.5
2018-10-09T00:42:47.836Z,19.48
2018-10-09T00:43:48.115Z,19.51
2018-10-09T00:44:48.180Z,19.48
2018-10-09T00:45:48.099Z,19.48
2018-10-09T00:46:48.306Z,19.5
2018-10-09T00:47:48.128Z,19.5
2018-10-09T00:48:47.877Z,19.5
2018-10-09T00:49:48.347Z,19.51
2018-10-09T00:50:48.149Z,19.5
2018-10-09T00:51:48.101Z,19.52
2018-10-09T00:52:48.027Z,19.5
2018-10-09T00:53:48.038Z,19.5
2018-10-09T00:54:48.466Z,19.5
2018-10-09T00:55:48.118Z,19.48
2018-10-09T00:56:48.271Z,19.5
2018-10-09T00:57:48.330Z,19.5
2018-10-09T00:58:48.125Z,19.47
2018-10-09T00:59:47.862Z,19.5
2018-10-09T01:00:48.281Z,19.5
2018-10-09T01:01:48.050Z,19.5
2018-10-09T01:02:48.174Z,19.48
2018-10-09T01:03:48.197Z,19.48
2018-10-09T01:04:47.994Z,19.5
2018-10-09T01:05:48.166Z,19.47
2018-10-09T01:06:48.044Z,19.47
2018-10-09T01:07:48.076Z,19.46
2018-10-09T01:08:47.911Z,19.46
2018-10-09T01:09:48.480Z,19.5
2018-10-09T01:10:48.151Z,19.48
2018-10-09T01:11:48.226Z,19.47
2018-10-09T01:12:48.095Z,19.5
2018-10-09T01:13:48.580Z,19.48
2018-10-09T01:14:47.925Z,19.47
2018-10-09T01:15:48.013Z,19.46
2018-10-09T01:16:48.371Z,19.51
2018-10-09T01:17:47.914Z,19.48
2018-10-09T01:18:48.067Z,19.48
2018-10-09T01:19:48.085Z,19.5
2018-10-09T01:20:47.996Z,19.48
2018-10-09T01:21:48.055Z,19.47
2018-10-09T01:22:47.991Z,19.46
2018-10-09T01:23:47.940Z,19.46
2018-10-09T01:24:48.091Z,19.47
2018-10-09T01:25:48.076Z,19.46
2018-10-09T01:26:47.927Z,19.46
2018-10-09T01:27:48.033Z,19.46
2018-10-09T01:28:48.404Z,19.46
2018-10-09T01:29:48.068Z,19.46
2018-10-09T01:30:48.036Z,19.44
2018-10-09T01:31:47.861Z,19.46
2018-10-09T01:32:48.115Z,19.45
2018-10-09T01:33:48.033Z,19.46
2018-10-09T01:34:47.883Z,19.47
2018-10-09T01:35:48.244Z,19.46
2018-10-09T01:36:47.977Z,19.46
2018-10-09T01:37:48.096Z,19.45
2018-10-09T01:38:48.057Z,19.46
2018-10-09T01:39:48.063Z,19.45
2018-10-09T01:40:48.239Z,19.43
2018-10-09T01:41:48.218Z,19.5
2018-10-09T01:42:48.070Z,19.47
2018-10-09T01:43:48.172Z,19.45
2018-10-09T01:44:47.915Z,19.46
2018-10-09T01:45:48.469Z,19.45
2018-10-09T01:46:47.958Z,19.45
2018-10-09T01:47:48.092Z,19.43
2018-10-09T01:48:47.870Z,19.46
2018-10-09T01:49:48.246Z,19.45
2018-10-09T01:50:48.049Z,19.46
2018-10-09T01:51:47.950Z,19.44
2018-10-09T01:52:47.942Z,19.44
2018-10-09T01:53:47.988Z,19.44
2018-10-09T01:54:48.117Z,19.44
2018-10-09T01:55:48.038Z,19.45
2018-10-09T01:56:47.893Z,19.45
2018-10-09T01:57:48.232Z,19.44
2018-10-09T01:58:48.084Z,19.46
2018-10-09T01:59:48.084Z,19.45
2018-10-09T02:00:48.689Z,19.46
2018-10-09T02:01:47.914Z,19.45
2018-10-09T02:02:48.323Z,19.45
2018-10-09T02:03:48.065Z,19.45
2018-10-09T02:04:47.943Z,19.45
2018-10-09T02:05:48.025Z,19.44
2018-10-09T02:06:47.958Z,19.44
2018-10-09T02:07:48.323Z,19.44
2018-10-09T02:08:48.634Z,19.45
2018-10-09T02:09:48.043Z,19.44
2018-10-09T02:10:48.060Z,19.45
2018-10-09T02:11:48.159Z,19.44
2018-10-09T02:12:48.608Z,19.45
2018-10-09T02:13:47.887Z,19.46
2018-10-09T02:14:48.005Z,19.45
2018-10-09T02:15:47.881Z,19.45
2018-10-09T02:16:48.012Z,19.44
2018-10-09T02:17:47.918Z,19.45
2018-10-09T02:18:48.218Z,19.45
2018-10-09T02:19:48.188Z,19.43
2018-10-09T02:20:48.134Z,19.42
2018-10-09T02:21:48.035Z,19.45
2018-10-09T02:22:48.055Z,19.43
2018-10-09T02:23:48.322Z,19.44
2018-10-09T02:24:48.430Z,19.45
2018-10-09T02:25:48.048Z,19.43
2018-10-09T02:26:48.319Z,19.44
2018-10-09T02:27:47.845Z,19.45
2018-10-09T02:28:48.021Z,19.42
2018-10-09T02:29:48.448Z,19.43
2018-10-09T02:30:48.500Z,19.42
2018-10-09T02:31:47.919Z,19.43
2018-10-09T02:32:48.131Z,19.43
2018-10-09T02:33:48.195Z,19.42
2018-10-09T02:34:47.944Z,19.43
2018-10-09T02:35:48.247Z,19.43
2018-10-09T02:36:48.164Z,19.41
2018-10-09T02:37:48.450Z,19.4
2018-10-09T02:38:48.064Z,19.39
2018-10-09T02:39:48.178Z,19.41
2018-10-09T02:40:48.138Z,19.42
2018-10-09T02:41:47.947Z,19.4
2018-10-09T02:42:48.041Z,19.41
2018-10-09T02:43:47.986Z,19.43
2018-10-09T02:44:48.066Z,19.41
2018-10-09T02:45:48.044Z,19.43
2018-10-09T02:46:48.152Z,19.42
2018-10-09T02:47:48.049Z,19.4
2018-10-09T02:48:47.896Z,19.41
2018-10-09T02:49:48.009Z,19.39
2018-10-09T02:50:48.292Z,19.39
2018-10-09T02:51:48.042Z,19.41
2018-10-09T02:52:47.980Z,19.42
2018-10-09T02:53:48.023Z,19.41
2018-10-09T02:54:48.363Z,19.41
2018-10-09T02:55:47.993Z,19.42
2018-10-09T02:56:47.984Z,19.42
2018-10-09T02:57:47.876Z,19.41
2018-10-09T02:58:48.176Z,19.4
2018-10-09T02:59:48.129Z,19.4
2018-10-09T03:00:47.983Z,19.4
2018-10-09T03:01:48.129Z,19.4
2018-10-09T03:02:47.945Z,19.4
2018-10-09T03:03:48.192Z,19.41
2018-10-09T03:04:47.951Z,19.41
2018-10-09T03:05:47.918Z,19.41
2018-10-09T03:06:48.076Z,19.41
2018-10-09T03:07:47.815Z,19.41
2018-10-09T03:08:48.121Z,19.41
2018-10-09T03:09:48.142Z,19.42
2018-10-09T03:10:47.915Z,19.41
2018-10-09T03:11:47.891Z,19.4
2018-10-09T03:12:48.228Z,19.4
2018-10-09T03:13:47.998Z,19.4
2018-10-09T03:14:48.031Z,19.39
2018-10-09T03:15:47.948Z,19.4
2018-10-09T03:16:47.997Z,19.4
2018-10-09T03:17:48.469Z,19.4
2018-10-09T03:18:48.038Z,19.37
2018-10-09T03:19:48.113Z,19.39
2018-10-09T03:20:49.128Z,19.39
2018-10-09T03:21:47.987Z,19.39
2018-10-09T03:22:48.245Z,19.37
2018-10-09T03:23:48.405Z,19.39
2018-10-09T03:24:47.976Z,19.4
2018-10-09T03:25:48.219Z,19.4
2018-10-09T03:26:47.815Z,19.4
2018-10-09T03:27:48.126Z,19.4
2018-10-09T03:28:47.953Z,19.39
2018-10-09T03:29:48.030Z,19.37
2018-10-09T03:30:47.755Z,19.37
2018-10-09T03:31:47.956Z,19.39
2018-10-09T03:32:47.880Z,19.39
2018-10-09T03:33:48.156Z,19.36
2018-10-09T03:34:47.924Z,19.4
2018-10-09T03:35:48.199Z,19.39
2018-10-09T03:36:48.011Z,19.39
2018-10-09T03:37:48.204Z,19.38
2018-10-09T03:38:47.955Z,19.37
2018-10-09T03:39:48.449Z,19.39
2018-10-09T03:40:48.156Z,19.38
2018-10-09T03:41:48.539Z,19.38
2018-10-09T03:42:48.381Z,19.37
2018-10-09T03:43:48.317Z,19.39
2018-10-09T03:44:48.143Z,19.37
2018-10-09T03:45:48.119Z,19.38
2018-10-09T03:46:48.003Z,19.39
2018-10-09T03:47:48.026Z,19.36
2018-10-09T03:48:47.819Z,19.38
2018-10-09T03:49:48.238Z,19.37
2018-10-09T03:50:48.009Z,19.36
2018-10-09T03:51:48.045Z,19.38
2018-10-09T03:52:47.893Z,19.37
2018-10-09T03:53:48.412Z,19.38
2018-10-09T03:54:48.013Z,19.36
2018-10-09T03:55:48.020Z,19.36
2018-10-09T03:56:47.871Z,19.36
2018-10-09T03:57:48.783Z,19.37
2018-10-09T03:58:48.076Z,19.38
2018-10-09T03:59:48.209Z,19.37
2018-10-09T04:00:48.146Z,19.36
2018-10-09T04:01:48.562Z,19.39
2018-10-09T04:02:47.864Z,19.38
2018-10-09T04:03:47.947Z,19.39
2018-10-09T04:04:48.367Z,19.38
2018-10-09T04:05:48.455Z,19.38
2018-10-09T04:06:47.767Z,19.36
2018-10-09T04:07:47.973Z,19.4
2018-10-09T04:08:47.778Z,19.37
2018-10-09T04:09:48.212Z,19.37
2018-10-09T04:10:48.066Z,19.38
2018-10-09T04:11:48.086Z,19.37
2018-10-09T04:12:48.701Z,19.36
2018-10-09T04:13:48.177Z,19.36
2018-10-09T04:14:48.046Z,19.35
2018-10-09T04:15:47.822Z,19.36
2018-10-09T04:16:47.875Z,19.35
2018-10-09T04:17:48.024Z,19.35
2018-10-09T04:18:48.233Z,19.36
2018-10-09T04:19:47.768Z,19.37
2018-10-09T04:20:48.144Z,19.36
2018-10-09T04:21:48.079Z,19.36
2018-10-09T04:22:48.333Z,19.36
2018-10-09T04:23:47.825Z,19.32
2018-10-09T04:24:47.980Z,19.36
2018-10-09T04:25:47.840Z,19.35
2018-10-09T04:26:48.039Z,19.33
2018-10-09T04:27:48.685Z,19.35
2018-10-09T04:28:48.055Z,19.36
2018-10-09T04:29:47.738Z,19.37
2018-10-09T04:30:47.765Z,19.36
2018-10-09T04:31:48.506Z,19.35
2018-10-09T04:32:48.561Z,19.35
2018-10-09T04:33:47.913Z,19.36
2018-10-09T04:34:47.783Z,19.36
2018-10-09T04:35:47.934Z,19.36
2018-10-09T04:36:48.857Z,19.36
2018-10-09T04:37:47.852Z,19.33
2018-10-09T04:38:48.068Z,19.36
2018-10-09T04:39:48.478Z,19.36
2018-10-09T04:40:47.903Z,19.33
2018-10-09T04:41:48.159Z,19.36
2018-10-09T04:42:47.828Z,19.36
2018-10-09T04:43:47.959Z,19.35
2018-10-09T04:44:47.963Z,19.36
2018-10-09T04:45:48.143Z,19.36
2018-10-09T04:46:48.227Z,19.36
2018-10-09T04:47:47.923Z,19.35
2018-10-09T04:48:48.092Z,19.36
2018-10-09T04:49:47.873Z,19.36
2018-10-09T04:50:47.831Z,19.36
2018-10-09T04:51:48.190Z,19.36
2018-10-09T04:52:47.992Z,19.36
2018-10-09T04:53:48.089Z,19.36
2018-10-09T04:54:48.179Z,19.36
2018-10-09T04:55:48.152Z,19.35
2018-10-09T04:56:47.996Z,19.36
2018-10-09T04:57:48.157Z,19.36
2018-10-09T04:58:48.201Z,19.36
2018-10-09T04:59:48.180Z,19.36
2018-10-09T05:00:48.899Z,19.36
2018-10-09T05:01:48.147Z,19.36
2018-10-09T05:02:47.991Z,19.36
2018-10-09T05:03:48.169Z,19.36
2018-10-09T05:04:48.148Z,19.35
2018-10-09T05:05:47.895Z,19.36
2018-10-09T05:06:48.377Z,19.35
2018-10-09T05:07:47.848Z,19.36
2018-10-09T05:08:47.845Z,19.38
2018-10-09T05:09:48.284Z,19.33
2018-10-09T05:10:48.054Z,19.32
2018-10-09T05:11:47.974Z,19.36
2018-10-09T05:12:47.959Z,19.36
2018-10-09T05:13:48.005Z,19.35
2018-10-09T05:14:48.729Z,19.33
2018-10-09T05:15:48.029Z,19.38
2018-10-09T05:16:48.289Z,19.35
2018-10-09T05:17:48.789Z,19.35
2018-10-09T05:18:47.851Z,19.36
2018-10-09T05:19:48.264Z,19.36
2018-10-09T05:20:48.269Z,19.36
2018-10-09T05:21:48.120Z,19.36
2018-10-09T05:22:47.846Z,19.36
2018-10-09T05:23:47.773Z,19.36
2018-10-09T05:24:48.093Z,19.36
2018-10-09T05:25:47.805Z,19.36
2018-10-09T05:26:47.894Z,19.36
2018-10-09T05:27:48.031Z,19.36
2018-10-09T05:28:47.805Z,19.36
2018-10-09T05:29:47.988Z,19.36
2018-10-09T05:30:47.945Z,19.35
2018-10-09T05:31:47.902Z,19.33
2018-10-09T05:32:47.899Z,19.36
2018-10-09T05:33:48.375Z,19.38
2018-10-09T05:34:47.797Z,19.36
2018-10-09T05:35:47.993Z,19.36
2018-10-09T05:36:48.151Z,19.36
2018-10-09T05:37:48.818Z,19.36
2018-10-09T05:38:47.949Z,19.35
2018-10-09T05:39:48.188Z,19.37
2018-10-09T05:40:47.901Z,19.36
2018-10-09T05:41:48.018Z,19.36
2018-10-09T05:42:48.041Z,19.33
2018-10-09T05:43:47.916Z,19.33
2018-10-09T05:44:48.333Z,19.36
2018-10-09T05:45:47.848Z,19.36
2018-10-09T05:46:48.060Z,19.35
2018-10-09T05:47:48.051Z,19.33
2018-10-09T05:48:48.127Z,19.35
2018-10-09T05:49:48.048Z,19.37
2018-10-09T05:50:47.930Z,19.33
2018-10-09T05:51:47.929Z,19.36
2018-10-09T05:52:48.043Z,19.36
2018-10-09T05:53:47.845Z,19.37
2018-10-09T05:54:47.778Z,19.38
2018-10-09T05:55:47.750Z,19.36
2018-10-09T05:56:47.924Z,19.36
2018-10-09T05:57:48.288Z,19.37
2018-10-09T05:58:47.866Z,19.37
2018-10-09T05:59:47.928Z,19.35
2018-10-09T06:00:47.936Z,19.36
2018-10-09T06:01:48.360Z,19.33
2018-10-09T06:02:47.800Z,19.37
2018-10-09T06:03:48.039Z,19.37
2018-10-09T06:04:47.886Z,19.37
2018-10-09T06:05:48.195Z,19.36
2018-10-09T06:06:48.093Z,19.37
2018-10-09T06:07:48.220Z,19.37
2018-10-09T06:08:47.810Z,19.35
2018-10-09T06:09:47.833Z,19.36
2018-10-09T06:10:48.057Z,19.36
2018-10-09T06:11:48.521Z,19.37
2018-10-09T06:12:47.852Z,19.36
2018-10-09T06:13:48.334Z,19.39
2018-10-09T06:14:47.984Z,19.36
2018-10-09T06:15:48.216Z,19.36
2018-10-09T06:16:47.896Z,19.35
2018-10-09T06:17:47.875Z,19.35
2018-10-09T06:18:48.032Z,19.33
2018-10-09T06:19:47.770Z,19.36
2018-10-09T06:20:47.959Z,19.37
2018-10-09T06:21:48.092Z,19.33
2018-10-09T06:22:47.925Z,19.36
2018-10-09T06:23:47.781Z,19.36
2018-10-09T06:24:48.237Z,19.36
2018-10-09T06:25:48.149Z,19.36
2018-10-09T06:26:48.130Z,19.35
2018-10-09T06:27:48.371Z,19.36
2018-10-09T06:28:47.929Z,19.37
2018-10-09T06:29:47.890Z,19.36
2018-10-09T06:30:48.402Z,19.37
2018-10-09T06:31:47.895Z,19.38
2018-10-09T06:32:47.890Z,19.37
2018-10-09T06:33:48.167Z,19.38
2018-10-09T06:34:48.250Z,19.36
2018-10-09T06:35:47.937Z,19.36
2018-10-09T06:36:47.850Z,19.37
2018-10-09T06:37:48.088Z,19.35
2018-10-09T06:38:47.881Z,19.36
2018-10-09T06:39:48.534Z,19.36
2018-10-09T06:40:48.831Z,19.33
2018-10-09T06:41:48.125Z,19.37
2018-10-09T06:42:48.737Z,19.36
2018-10-09T06:43:47.842Z,19.36
2018-10-09T06:44:48.024Z,19.36
2018-10-09T06:45:47.957Z,19.36
2018-10-09T06:46:47.995Z,19.36
2018-10-09T06:47:49.071Z,19.36
2018-10-09T06:48:47.971Z,19.35
2018-10-09T06:49:47.839Z,19.35
2018-10-09T06:50:47.942Z,19.35
2018-10-09T06:51:47.852Z,19.36
2018-10-09T06:52:47.897Z,19.37
2018-10-09T06:53:49.758Z,19.33
2018-10-09T06:54:48.869Z,19.35
2018-10-09T06:55:47.868Z,19.36
2018-10-09T06:56:48.210Z,19.38
2018-10-09T06:57:48.311Z,19.36
2018-10-09T06:58:47.934Z,19.36
2018-10-09T06:59:48.185Z,19.39
2018-10-09T07:00:48.172Z,19.36
2018-10-09T07:01:47.925Z,19.35
2018-10-09T07:02:47.867Z,19.36
2018-10-09T07:03:47.940Z,19.35
2018-10-09T07:04:47.885Z,19.36
2018-10-09T07:05:47.988Z,19.35
2018-10-09T07:06:48.164Z,19.36
2018-10-09T07:07:47.780Z,19.36
2018-10-09T07:08:47.835Z,19.36
2018-10-09T07:09:48.001Z,19.38
2018-10-09T07:10:47.987Z,19.35
2018-10-09T07:11:47.947Z,19.35
2018-10-09T07:12:47.949Z,19.37
2018-10-09T07:13:48.283Z,19.36
2018-10-09T07:14:48.004Z,19.36
2018-10-09T07:15:47.754Z,19.37
2018-10-09T07:16:48.506Z,19.35
2018-10-09T07:17:47.745Z,19.35
2018-10-09T07:18:47.886Z,19.36
2018-10-09T07:19:47.869Z,19.36
2018-10-09T07:20:47.764Z,19.36
2018-10-09T07:21:47.989Z,19.36
2018-10-09T07:22:47.812Z,19.35
2018-10-09T07:23:47.772Z,19.33
2018-10-09T07:24:47.982Z,19.36
2018-10-09T07:25:48.167Z,19.33
2018-10-09T07:26:47.782Z,19.36
2018-10-09T07:27:48.270Z,19.36
2018-10-09T07:28:48.003Z,19.37
2018-10-09T07:29:47.823Z,19.38
2018-10-09T07:30:47.917Z,19.35
2018-10-09T07:31:47.969Z,19.37
2018-10-09T07:32:47.966Z,19.35
2018-10-09T07:33:48.025Z,19.37
2018-10-09T07:34:48.367Z,19.37
2018-10-09T07:35:47.809Z,19.39
2018-10-09T07:36:47.838Z,19.36
2018-10-09T07:37:47.748Z,19.39
2018-10-09T07:38:47.947Z,19.37
2018-10-09T07:39:47.931Z,19.38
2018-10-09T07:40:48.073Z,19.39
2018-10-09T07:41:47.961Z,19.4
2018-10-09T07:42:48.063Z,19.39
2018-10-09T07:43:48.055Z,19.38
2018-10-09T07:44:47.970Z,19.38
2018-10-09T07:45:47.724Z,19.39
2018-10-09T07:46:47.834Z,19.38
2018-10-09T07:47:48.086Z,19.37
2018-10-09T07:48:48.037Z,19.38
2018-10-09T07:49:48.017Z,19.39
2018-10-09T07:50:47.746Z,19.39
2018-10-09T07:51:47.998Z,19.39
2018-10-09T07:52:48.423Z,19.4
2018-10-09T07:53:47.986Z,19.39
2018-10-09T07:54:48.027Z,19.38
2018-10-09T07:55:47.664Z,19.4
2018-10-09T07:56:47.719Z,19.39
2018-10-09T07:57:47.979Z,19.39
2018-10-09T07:58:49.106Z,19.4
2018-10-09T07:59:47.897Z,19.4
2018-10-09T08:00:47.970Z,19.41
2018-10-09T08:01:48.010Z,19.41
2018-10-09T08:02:47.658Z,19.41
2018-10-09T08:03:47.934Z,19.43
2018-10-09T08:04:48.647Z,19.41
2018-10-09T08:05:47.813Z,19.43
2018-10-09T08:06:47.998Z,19.44
2018-10-09T08:07:47.828Z,19.45
2018-10-09T08:08:47.963Z,19.43
2018-10-09T08:09:48.378Z,19.45
2018-10-09T08:10:48.624Z,19.45
2018-10-09T08:11:47.935Z,19.47
2018-10-09T08:12:48.067Z,19.48
2018-10-09T08:13:47.896Z,19.5
2018-10-09T08:14:47.981Z,19.5
2018-10-09T08:15:47.988Z,19.5
2018-10-09T08:16:47.863Z,19.52
2018-10-09T08:17:47.901Z,19.52
2018-10-09T08:18:47.796Z,19.51
2018-10-09T08:19:47.832Z,19.52
2018-10-09T08:20:47.876Z,19.53
2018-10-09T08:21:47.840Z,19.54
2018-10-09T08:22:48.464Z,19.54
2018-10-09T08:23:47.979Z,19.58
2018-10-09T08:24:48.040Z,19.56
2018-10-09T08:25:47.992Z,19.57
2018-10-09T08:26:48.223Z,19.58
2018-10-09T08:27:48.199Z,19.56
2018-10-09T08:28:47.928Z,19.58
2018-10-09T08:29:48.051Z,19.56
2018-10-09T08:30:47.984Z,19.55
2018-10-09T08:31:47.824Z,19.56
2018-10-09T08:32:48.050Z,19.56
2018-10-09T08:33:48.428Z,19.57
2018-10-09T08:34:47.828Z,19.58
2018-10-09T08:35:47.952Z,19.56
2018-10-09T08:36:47.748Z,19.57
2018-10-09T08:37:47.956Z,19.59
2018-10-09T08:38:47.748Z,19.57
2018-10-09T08:39:47.964Z,19.58
2018-10-09T08:40:47.980Z,19.57
2018-10-09T08:41:47.812Z,19.59
2018-10-09T08:42:47.728Z,19.57
2018-10-09T08:43:47.877Z,19.58
2018-10-09T08:44:47.797Z,19.57
2018-10-09T08:45:48.300Z,19.55
2018-10-09T08:46:47.774Z,19.53
2018-10-09T08:47:47.781Z,19.53
2018-10-09T08:48:48.010Z,19.52
2018-10-09T08:49:47.832Z,19.52
2018-10-09T08:50:47.788Z,19.52
2018-10-09T08:51:48.421Z,19.51
2018-10-09T08:52:47.847Z,19.52
2018-10-09T08:53:47.940Z,19.52
2018-10-09T08:54:48.002Z,19.52
2018-10-09T08:55:47.904Z,19.5
2018-10-09T08:56:47.871Z,19.5
2018-10-09T08:57:48.172Z,19.48
2018-10-09T08:58:48.199Z,19.5
2018-10-09T08:59:48.048Z,19.48
2018-10-09T09:00:47.909Z,19.48
2018-10-09T09:01:48.160Z,19.5
2018-10-09T09:02:47.955Z,19.47
2018-10-09T09:03:48.132Z,19.46
2018-10-09T09:04:47.842Z,19.48
2018-10-09T09:05:48.303Z,19.45
2018-10-09T09:06:48.133Z,19.47
2018-10-09T09:07:47.974Z,19.47
2018-10-09T09:08:47.858Z,19.48
2018-10-09T09:09:49.074Z,19.46
2018-10-09T09:10:47.927Z,19.48
2018-10-09T09:11:48.141Z,19.46
2018-10-09T09:12:48.286Z,19.45
2018-10-09T09:13:48.082Z,19.45
2018-10-09T09:14:47.787Z,19.46
2018-10-09T09:15:47.995Z,19.43
2018-10-09T09:16:48.059Z,19.45
2018-10-09T09:17:47.941Z,19.45
2018-10-09T09:18:47.858Z,19.45
2018-10-09T09:19:47.988Z,19.44
2018-10-09T09:20:48.413Z,19.45
2018-10-09T09:21:48.356Z,19.45
2018-10-09T09:22:48.100Z,19.43
2018-10-09T09:23:47.934Z,19.45
2018-10-09T09:24:47.865Z,19.45
2018-10-09T09:25:48.031Z,19.44
2018-10-09T09:26:48.773Z,19.44
2018-10-09T09:27:48.601Z,19.45
2018-10-09T09:28:48.105Z,19.44
2018-10-09T09:29:48.113Z,19.43
2018-10-09T09:30:47.624Z,19.45
2018-10-09T09:31:48.057Z,19.43
2018-10-09T09:32:47.787Z,19.43
2018-10-09T09:33:48.136Z,19.44
2018-10-09T09:34:47.902Z,19.43
2018-10-09T09:35:47.873Z,19.42
2018-10-09T09:36:47.960Z,19.41
2018-10-09T09:37:48.261Z,19.43
2018-10-09T09:38:48.025Z,19.42
2018-10-09T09:39:47.769Z,19.4
2018-10-09T09:40:47.958Z,19.42
2018-10-09T09:41:47.840Z,19.43
2018-10-09T09:42:47.996Z,19.41
2018-10-09T09:43:47.655Z,19.43
2018-10-09T09:44:47.978Z,19.4
2018-10-09T09:45:48.213Z,19.43
2018-10-09T09:46:47.778Z,19.41
2018-10-09T09:47:47.732Z,19.41
2018-10-09T09:48:48.016Z,19.43
2018-10-09T09:49:47.795Z,19.44
2018-10-09T09:50:48.143Z,19.41
2018-10-09T09:51:48.047Z,19.41
2018-10-09T09:52:47.922Z,19.4
2018-10-09T09:53:47.955Z,19.43
2018-10-09T09:54:47.915Z,19.41
2018-10-09T09:55:47.630Z,19.42
2018-10-09T09:56:47.768Z,19.39
2018-10-09T09:57:48.601Z,19.42
2018-10-09T09:58:49.632Z,19.42
2018-10-09T09:59:47.892Z,19.41
2018-10-09T10:00:47.859Z,19.4
2018-10-09T10:01:48.110Z,19.41
2018-10-09T10:02:47.719Z,19.42
2018-10-09T10:03:48.830Z,19.38
2018-10-09T10:04:47.851Z,19.42
2018-10-09T10:05:47.819Z,19.43
2018-10-09T10:06:47.785Z,19.41
2018-10-09T10:07:47.952Z,19.4
2018-10-09T10:08:48.073Z,19.42
2018-10-09T10:09:47.849Z,19.39
2018-10-09T10:10:47.943Z,19.4
2018-10-09T10:11:47.819Z,19.4
2018-10-09T10:12:47.877Z,19.39
2018-10-09T10:13:48.178Z,19.4
2018-10-09T10:14:47.773Z,19.39
2018-10-09T10:15:48.164Z,19.4
2018-10-09T10:16:48.335Z,19.4
2018-10-09T10:17:47.804Z,19.39
2018-10-09T10:18:48.382Z,19.39
2018-10-09T10:19:47.919Z,19.39
2018-10-09T10:20:47.750Z,19.39
2018-10-09T10:21:47.959Z,19.38
2018-10-09T10:22:48.135Z,19.4
2018-10-09T10:23:47.697Z,19.4
2018-10-09T10:24:47.921Z,19.4
2018-10-09T10:25:47.974Z,19.39
2018-10-09T10:26:48.112Z,19.41
2018-10-09T10:27:47.784Z,19.4
2018-10-09T10:28:47.849Z,19.41
2018-10-09T10:29:47.922Z,19.4
2018-10-09T10:30:48.217Z,19.4
2018-10-09T10:31:47.854Z,19.4
2018-10-09T10:32:48.108Z,19.38
2018-10-09T10:33:47.901Z,19.38
2018-10-09T10:34:47.817Z,19.39
2018-10-09T10:35:48.659Z,19.4
2018-10-09T10:36:48.589Z,19.4
2018-10-09T10:37:48.024Z,19.39
2018-10-09T10:38:47.932Z,19.4
2018-10-09T10:39:48.188Z,19.4
2018-10-09T10:40:47.960Z,19.39
2018-10-09T10:41:47.693Z,19.4
2018-10-09T10:42:47.761Z,19.38
2018-10-09T10:43:47.942Z,19.37
2018-10-09T10:44:48.030Z,19.4
2018-10-09T10:45:47.834Z,19.39
2018-10-09T10:46:47.887Z,19.4
2018-10-09T10:47:47.876Z,19.38
2018-10-09T10:48:48.297Z,19.38
2018-10-09T10:49:47.611Z,19.4
2018-10-09T10:50:48.065Z,19.37
2018-10-09T10:51:47.949Z,19.4
2018-10-09T10:52:47.854Z,19.39
2018-10-09T10:53:47.624Z,19.37
2018-10-09T10:54:48.186Z,19.4
2018-10-09T10:55:47.699Z,19.39
2018-10-09T10:56:47.966Z,19.39
2018-10-09T10:57:47.819Z,19.37
2018-10-09T10:58:48.062Z,19.39
2018-10-09T10:59:48.180Z,19.4
2018-10-09T11:00:48.299Z,19.39
2018-10-09T11:01:48.884Z,19.38
2018-10-09T11:02:48.446Z,19.4
2018-10-09T11:03:47.741Z,19.39
2018-10-09T11:04:47.849Z,19.38
2018-10-09T11:05:48.134Z,19.39
2018-10-09T11:06:47.934Z,19.38
2018-10-09T11:07:48.369Z,19.4
2018-10-09T11:08:47.889Z,19.4
2018-10-09T11:09:48.018Z,19.38
2018-10-09T11:10:48.103Z,19.41
2018-10-09T11:11:48.085Z,19.38
2018-10-09T11:12:48.018Z,19.4
2018-10-09T11:13:47.960Z,19.38
2018-10-09T11:14:48.748Z,19.38
2018-10-09T11:15:47.872Z,19.39
2018-10-09T11:16:47.822Z,19.38
2018-10-09T11:17:48.230Z,19.39
2018-10-09T11:18:47.990Z,19.37
2018-10-09T11:19:47.765Z,19.39
2018-10-09T11:20:48.014Z,19.39
2018-10-09T11:21:47.824Z,19.39
2018-10-09T11:22:47.932Z,19.41
2018-10-09T11:23:47.920Z,19.4
2018-10-09T11:24:47.795Z,19.38
2018-10-09T11:25:47.622Z,19.39
2018-10-09T11:26:47.882Z,19.38
2018-10-09T11:27:47.847Z,19.38
2018-10-09T11:28:47.838Z,19.41
2018-10-09T11:29:47.884Z,19.39
2018-10-09T11:30:47.770Z,19.42
2018-10-09T11:31:47.857Z,19.41
2018-10-09T11:32:47.608Z,19.42
2018-10-09T11:33:48.264Z,19.42
2018-10-09T11:34:48.095Z,19.42
2018-10-09T11:35:47.865Z,19.43
2018-10-09T11:36:47.824Z,19.44
2018-10-09T11:37:47.826Z,19.46
2018-10-09T11:38:47.858Z,19.47
2018-10-09T11:39:47.888Z,19.47
2018-10-09T11:40:47.791Z,19.5
2018-10-09T11:41:47.764Z,19.51
2018-10-09T11:42:48.496Z,19.5
2018-10-09T11:43:47.937Z,19.52
2018-10-09T11:44:47.607Z,19.52
2018-10-09T11:45:47.784Z,19.53
2018-10-09T11:46:47.728Z,19.54
2018-10-09T11:47:47.970Z,19.56
2018-10-09T11:48:48.253Z,19.55
2018-10-09T11:49:48.373Z,19.56
2018-10-09T11:50:47.874Z,19.58
2018-10-09T11:51:47.935Z,19.59
2018-10-09T11:52:47.926Z,19.59
2018-10-09T11:53:48.030Z,19.59
2018-10-09T11:54:47.919Z,19.57
2018-10-09T11:55:48.432Z,19.62
2018-10-09T11:56:47.774Z,19.62
2018-10-09T11:57:48.043Z,19.61
2018-10-09T11:58:47.807Z,19.62
2018-10-09T11:59:47.889Z,19.62
2018-10-09T12:00:47.792Z,19.63
2018-10-09T12:01:47.888Z,19.63
2018-10-09T12:02:48.310Z,19.62
2018-10-09T12:03:47.863Z,19.67
2018-10-09T12:04:47.909Z,19.67
2018-10-09T12:05:48.533Z,19.67
2018-10-09T12:06:47.830Z,19.65
2018-10-09T12:07:47.666Z,19.66
2018-10-09T12:08:47.768Z,19.66
2018-10-09T12:09:47.919Z,19.68
2018-10-09T12:10:48.095Z,19.69
2018-10-09T12:11:47.766Z,19.69
2018-10-09T12:12:47.834Z,19.71
2018-10-09T12:13:47.728Z,19.71
2018-10-09T12:14:47.829Z,19.69
2018-10-09T12:15:48.358Z,19.71
2018-10-09T12:16:47.987Z,19.72
2018-10-09T12:17:47.876Z,19.73
2018-10-09T12:18:47.833Z,19.73
2018-10-09T12:19:47.970Z,19.72
2018-10-09T12:20:47.982Z,19.75
2018-10-09T12:21:47.578Z,19.75
2018-10-09T12:22:48.014Z,19.73
2018-10-09T12:23:47.673Z,19.71
2018-10-09T12:24:47.987Z,19.69
2018-10-09T12:25:47.870Z,19.69
2018-10-09T12:26:47.904Z,19.67
2018-10-09T12:27:48.249Z,19.66
2018-10-09T12:28:47.709Z,19.66
2018-10-09T12:29:47.926Z,19.65
2018-10-09T12:30:48.560Z,19.65
2018-10-09T12:31:47.871Z,19.66
2018-10-09T12:32:48.598Z,19.63
2018-10-09T12:33:48.854Z,19.65
2018-10-09T12:34:47.903Z,19.65
2018-10-09T12:35:47.809Z,19.62
2018-10-09T12:36:47.987Z,19.66
2018-10-09T12:37:48.122Z,19.6
2018-10-09T12:38:47.701Z,19.62
2018-10-09T12:39:47.928Z,19.6
2018-10-09T12:40:47.675Z,19.59
2018-10-09T12:41:47.776Z,19.6
2018-10-09T12:42:47.794Z,19.6
2018-10-09T12:43:48.313Z,19.6
2018-10-09T12:44:47.745Z,19.59
2018-10-09T12:45:47.722Z,19.59
2018-10-09T12:46:47.708Z,19.59
2018-10-09T12:47:47.803Z,19.56
2018-10-09T12:48:47.904Z,19.57
2018-10-09T12:49:47.837Z,19.58
2018-10-09T12:50:47.761Z,19.56
2018-10-09T12:51:47.887Z,19.57
2018-10-09T12:52:48.069Z,19.57
2018-10-09T12:53:47.926Z,19.55
2018-10-09T12:54:48.296Z,19.56
2018-10-09T12:55:47.906Z,19.55